sensor_id;sensor_type;location;lat;lon;timestamp;temperature;humidity
44723;DHT22;30451;48.638;10.624;2023-02-28T00:00:18;20.60;44.20
44723;DHT22;30451;48.638;10.624;2023-02-28T00:02:45;20.50;44.20
44723;DHT22;30451;48.638;10.624;2023-02-28T00:05:12;20.50;44.10
44723;DHT22;30451;48.638;10.624;2023-02-28T00:07:39;20.50;44.10
44723;DHT22;30451;48.638;10.624;2023-02-28T00:10:05;20.50;44.20
44723;DHT22;30451;48.638;10.624;2023-02-28T00:12:33;20.50;44.20
44723;DHT22;30451;48.638;10.624;2023-02-28T00:14:59;20.50;44.20
44723;DHT22;30451;48.638;10.624;2023-02-28T00:17:24;20.50;44.20
44723;DHT22;30451;48.638;10.624;2023-02-28T00:19:51;20.50;44.20
44723;DHT22;30451;48.638;10.624;2023-02-28T00:22:19;20.50;44.20
44723;DHT22;30451;48.638;10.624;2023-02-28T00:24:46;20.40;44.20
44723;DHT22;30451;48.638;10.624;2023-02-28T00:27:12;20.50;44.20
44723;DHT22;30451;48.638;10.624;2023-02-28T00:29:38;20.40;44.20
44723;DHT22;30451;48.638;10.624;2023-02-28T00:32:04;20.40;44.20
44723;DHT22;30451;48.638;10.624;2023-02-28T00:34:30;20.40;44.20
44723;DHT22;30451;48.638;10.624;2023-02-28T00:36:56;20.40;44.10
44723;DHT22;30451;48.638;10.624;2023-02-28T00:39:21;20.40;44.20
44723;DHT22;30451;48.638;10.624;2023-02-28T00:41:47;20.40;44.20
44723;DHT22;30451;48.638;10.624;2023-02-28T00:44:13;20.40;44.20
44723;DHT22;30451;48.638;10.624;2023-02-28T00:46:38;20.40;44.30
44723;DHT22;30451;48.638;10.624;2023-02-28T00:49:04;20.40;44.70
44723;DHT22;30451;48.638;10.624;2023-02-28T00:51:30;20.30;44.20
44723;DHT22;30451;48.638;10.624;2023-02-28T00:53:55;20.30;44.20
44723;DHT22;30451;48.638;10.624;2023-02-28T00:56:21;20.30;44.70
44723;DHT22;30451;48.638;10.624;2023-02-28T00:58:47;20.30;44.20
44723;DHT22;30451;48.638;10.624;2023-02-28T01:01:12;20.30;44.20
44723;DHT22;30451;48.638;10.624;2023-02-28T01:03:38;20.30;44.20
44723;DHT22;30451;48.638;10.624;2023-02-28T01:06:04;20.20;44.20
44723;DHT22;30451;48.638;10.624;2023-02-28T01:08:30;20.30;44.30
44723;DHT22;30451;48.638;10.624;2023-02-28T01:10:55;20.30;44.20
44723;DHT22;30451;48.638;10.624;2023-02-28T01:13:21;20.30;44.20
44723;DHT22;30451;48.638;10.624;2023-02-28T01:15:53;20.20;44.20
44723;DHT22;30451;48.638;10.624;2023-02-28T01:18:21;20.20;44.20
44723;DHT22;30451;48.638;10.624;2023-02-28T01:20:47;20.20;44.30
44723;DHT22;30451;48.638;10.624;2023-02-28T01:23:13;20.20;44.20
44723;DHT22;30451;48.638;10.624;2023-02-28T01:25:39;20.20;44.20
44723;DHT22;30451;48.638;10.624;2023-02-28T01:28:05;20.20;44.30
44723;DHT22;30451;48.638;10.624;2023-02-28T01:30:31;20.20;44.20
44723;DHT22;30451;48.638;10.624;2023-02-28T01:32:57;20.10;44.20
44723;DHT22;30451;48.638;10.624;2023-02-28T01:35:23;20.10;44.30
44723;DHT22;30451;48.638;10.624;2023-02-28T01:37:48;20.10;44.20
44723;DHT22;30451;48.638;10.624;2023-02-28T01:40:14;20.10;44.30
44723;DHT22;30451;48.638;10.624;2023-02-28T01:42:40;20.10;44.80
44723;DHT22;30451;48.638;10.624;2023-02-28T01:47:57;20.10;44.20
44723;DHT22;30451;48.638;10.624;2023-02-28T01:50:27;20.10;44.30
44723;DHT22;30451;48.638;10.624;2023-02-28T01:52:54;20.00;44.20
44723;DHT22;30451;48.638;10.624;2023-02-28T01:55:22;20.00;44.20
44723;DHT22;30451;48.638;10.624;2023-02-28T01:57:52;20.00;44.20
44723;DHT22;30451;48.638;10.624;2023-02-28T02:00:22;20.00;44.20
44723;DHT22;30451;48.638;10.624;2023-02-28T02:02:49;20.00;44.20
44723;DHT22;30451;48.638;10.624;2023-02-28T02:05:18;20.00;44.20
44723;DHT22;30451;48.638;10.624;2023-02-28T02:07:46;20.00;44.20
44723;DHT22;30451;48.638;10.624;2023-02-28T02:12:56;20.00;44.20
44723;DHT22;30451;48.638;10.624;2023-02-28T02:15:56;20.00;44.20
44723;DHT22;30451;48.638;10.624;2023-02-28T02:23:55;19.90;44.20
44723;DHT22;30451;48.638;10.624;2023-02-28T02:37:42;19.80;44.10
44723;DHT22;30451;48.638;10.624;2023-02-28T02:42:51;19.80;44.20
44723;DHT22;30451;48.638;10.624;2023-02-28T02:48:11;19.80;44.20
44723;DHT22;30451;48.638;10.624;2023-02-28T02:50:42;19.80;44.20
44723;DHT22;30451;48.638;10.624;2023-02-28T02:53:10;19.80;44.20
44723;DHT22;30451;48.638;10.624;2023-02-28T02:55:41;19.80;44.20
44723;DHT22;30451;48.638;10.624;2023-02-28T02:58:13;19.80;44.20
44723;DHT22;30451;48.638;10.624;2023-02-28T03:00:52;19.80;44.20
44723;DHT22;30451;48.638;10.624;2023-02-28T03:03:20;19.70;44.20
44723;DHT22;30451;48.638;10.624;2023-02-28T03:05:58;19.70;44.20
44723;DHT22;30451;48.638;10.624;2023-02-28T03:08:25;19.70;44.20
44723;DHT22;30451;48.638;10.624;2023-02-28T03:10:52;19.70;44.30
44723;DHT22;30451;48.638;10.624;2023-02-28T03:27:55;19.60;44.20
44723;DHT22;30451;48.638;10.624;2023-02-28T03:30:31;19.60;44.20
44723;DHT22;30451;48.638;10.624;2023-02-28T03:33:08;19.60;44.30
44723;DHT22;30451;48.638;10.624;2023-02-28T03:35:39;19.60;44.30
44723;DHT22;30451;48.638;10.624;2023-02-28T03:38:11;19.60;44.30
44723;DHT22;30451;48.638;10.624;2023-02-28T03:40:42;19.60;44.30
44723;DHT22;30451;48.638;10.624;2023-02-28T03:43:12;19.60;44.30
44723;DHT22;30451;48.638;10.624;2023-02-28T03:45:40;19.60;44.30
44723;DHT22;30451;48.638;10.624;2023-02-28T03:48:16;19.60;44.30
44723;DHT22;30451;48.638;10.624;2023-02-28T03:50:46;19.60;44.30
44723;DHT22;30451;48.638;10.624;2023-02-28T03:53:21;19.60;44.40
44723;DHT22;30451;48.638;10.624;2023-02-28T03:58:53;19.60;44.40
44723;DHT22;30451;48.638;10.624;2023-02-28T04:01:27;19.50;44.30
44723;DHT22;30451;48.638;10.624;2023-02-28T04:03:53;19.50;44.30
44723;DHT22;30451;48.638;10.624;2023-02-28T04:06:21;19.50;44.30
44723;DHT22;30451;48.638;10.624;2023-02-28T04:08:47;19.50;44.30
44723;DHT22;30451;48.638;10.624;2023-02-28T04:13:50;19.50;44.30
44723;DHT22;30451;48.638;10.624;2023-02-28T04:16:16;19.50;44.30
44723;DHT22;30451;48.638;10.624;2023-02-28T04:18:42;19.50;44.40
44723;DHT22;30451;48.638;10.624;2023-02-28T04:21:11;19.50;44.40
44723;DHT22;30451;48.638;10.624;2023-02-28T04:23:37;19.50;44.40
44723;DHT22;30451;48.638;10.624;2023-02-28T04:26:03;19.40;44.40
44723;DHT22;30451;48.638;10.624;2023-02-28T04:28:30;19.40;44.40
44723;DHT22;30451;48.638;10.624;2023-02-28T04:30:57;19.50;44.50
44723;DHT22;30451;48.638;10.624;2023-02-28T04:33:23;19.40;44.40
44723;DHT22;30451;48.638;10.624;2023-02-28T04:35:58;19.40;44.40
44723;DHT22;30451;48.638;10.624;2023-02-28T04:38:24;19.40;44.40
44723;DHT22;30451;48.638;10.624;2023-02-28T04:40:49;19.40;44.50
44723;DHT22;30451;48.638;10.624;2023-02-28T04:43:15;19.50;44.50
44723;DHT22;30451;48.638;10.624;2023-02-28T04:45:40;19.40;44.40
44723;DHT22;30451;48.638;10.624;2023-02-28T04:48:06;19.40;44.40
44723;DHT22;30451;48.638;10.624;2023-02-28T04:50:31;19.40;44.50
44723;DHT22;30451;48.638;10.624;2023-02-28T04:52:57;19.40;44.40
44723;DHT22;30451;48.638;10.624;2023-02-28T04:55:23;19.40;44.40
44723;DHT22;30451;48.638;10.624;2023-02-28T04:57:48;19.40;44.40
44723;DHT22;30451;48.638;10.624;2023-02-28T05:00:14;19.40;44.50
44723;DHT22;30451;48.638;10.624;2023-02-28T05:02:42;19.40;44.50
44723;DHT22;30451;48.638;10.624;2023-02-28T05:05:08;19.40;44.50
44723;DHT22;30451;48.638;10.624;2023-02-28T05:07:33;19.40;44.50
44723;DHT22;30451;48.638;10.624;2023-02-28T05:09:59;19.40;44.50
44723;DHT22;30451;48.638;10.624;2023-02-28T05:12:25;19.40;44.50
44723;DHT22;30451;48.638;10.624;2023-02-28T05:14:50;19.40;44.50
44723;DHT22;30451;48.638;10.624;2023-02-28T05:17:16;19.40;44.50
44723;DHT22;30451;48.638;10.624;2023-02-28T05:19:42;19.40;44.60
44723;DHT22;30451;48.638;10.624;2023-02-28T05:22:13;19.40;44.60
44723;DHT22;30451;48.638;10.624;2023-02-28T05:24:40;19.40;44.70
44723;DHT22;30451;48.638;10.624;2023-02-28T05:27:08;19.30;44.60
44723;DHT22;30451;48.638;10.624;2023-02-28T05:29:34;19.40;44.70
44723;DHT22;30451;48.638;10.624;2023-02-28T05:32:11;19.40;44.70
44723;DHT22;30451;48.638;10.624;2023-02-28T05:34:38;19.30;44.70
44723;DHT22;30451;48.638;10.624;2023-02-28T05:37:05;19.40;44.70
44723;DHT22;30451;48.638;10.624;2023-02-28T05:39:31;19.40;44.80
44723;DHT22;30451;48.638;10.624;2023-02-28T05:41:57;19.30;44.90
44723;DHT22;30451;48.638;10.624;2023-02-28T05:44:22;19.40;45.30
44723;DHT22;30451;48.638;10.624;2023-02-28T05:46:48;19.30;44.80
44723;DHT22;30451;48.638;10.624;2023-02-28T05:49:13;19.30;44.80
44723;DHT22;30451;48.638;10.624;2023-02-28T05:51:39;19.30;44.80
44723;DHT22;30451;48.638;10.624;2023-02-28T05:54:05;19.30;44.80
44723;DHT22;30451;48.638;10.624;2023-02-28T05:56:31;19.30;44.80
44723;DHT22;30451;48.638;10.624;2023-02-28T05:59:00;19.30;44.90
44723;DHT22;30451;48.638;10.624;2023-02-28T06:01:42;19.30;44.90
44723;DHT22;30451;48.638;10.624;2023-02-28T06:04:15;19.30;44.80
44723;DHT22;30451;48.638;10.624;2023-02-28T06:06:46;19.30;44.90
44723;DHT22;30451;48.638;10.624;2023-02-28T06:09:13;19.30;44.90
44723;DHT22;30451;48.638;10.624;2023-02-28T06:11:39;19.40;45.80
44723;DHT22;30451;48.638;10.624;2023-02-28T06:14:05;19.50;46.00
44723;DHT22;30451;48.638;10.624;2023-02-28T06:16:33;19.50;45.90
44723;DHT22;30451;48.638;10.624;2023-02-28T06:19:02;19.60;46.10
44723;DHT22;30451;48.638;10.624;2023-02-28T06:21:29;19.60;46.30
44723;DHT22;30451;48.638;10.624;2023-02-28T06:23:55;19.60;46.30
44723;DHT22;30451;48.638;10.624;2023-02-28T06:26:21;19.60;46.20
44723;DHT22;30451;48.638;10.624;2023-02-28T06:28:47;19.60;46.10
44723;DHT22;30451;48.638;10.624;2023-02-28T06:31:15;19.60;46.20
44723;DHT22;30451;48.638;10.624;2023-02-28T06:33:42;19.70;46.40
44723;DHT22;30451;48.638;10.624;2023-02-28T06:36:09;19.70;46.40
44723;DHT22;30451;48.638;10.624;2023-02-28T06:38:36;19.70;46.40
44723;DHT22;30451;48.638;10.624;2023-02-28T06:41:02;19.80;46.50
44723;DHT22;30451;48.638;10.624;2023-02-28T06:43:30;19.80;46.50
44723;DHT22;30451;48.638;10.624;2023-02-28T06:45:58;19.80;46.50
44723;DHT22;30451;48.638;10.624;2023-02-28T06:48:26;19.80;46.60
44723;DHT22;30451;48.638;10.624;2023-02-28T06:51:00;19.90;46.60
44723;DHT22;30451;48.638;10.624;2023-02-28T06:53:26;19.90;46.90
44723;DHT22;30451;48.638;10.624;2023-02-28T06:55:51;20.00;46.00
44723;DHT22;30451;48.638;10.624;2023-02-28T06:58:17;20.00;45.40
44723;DHT22;30451;48.638;10.624;2023-02-28T07:00:50;20.00;45.10
44723;DHT22;30451;48.638;10.624;2023-02-28T07:03:15;20.00;44.90
44723;DHT22;30451;48.638;10.624;2023-02-28T07:05:42;20.10;45.10
44723;DHT22;30451;48.638;10.624;2023-02-28T07:08:08;20.20;45.70
44723;DHT22;30451;48.638;10.624;2023-02-28T07:10:34;20.30;45.70
44723;DHT22;30451;48.638;10.624;2023-02-28T07:13:04;20.50;45.70
44723;DHT22;30451;48.638;10.624;2023-02-28T07:15:29;20.70;45.70
44723;DHT22;30451;48.638;10.624;2023-02-28T07:17:55;20.90;45.70
44723;DHT22;30451;48.638;10.624;2023-02-28T07:20:22;20.80;45.80
44723;DHT22;30451;48.638;10.624;2023-02-28T07:22:48;20.80;46.10
44723;DHT22;30451;48.638;10.624;2023-02-28T07:25:27;20.90;46.40
44723;DHT22;30451;48.638;10.624;2023-02-28T07:27:54;21.00;46.40
44723;DHT22;30451;48.638;10.624;2023-02-28T07:30:20;21.10;46.30
44723;DHT22;30451;48.638;10.624;2023-02-28T07:32:46;21.20;46.40
44723;DHT22;30451;48.638;10.624;2023-02-28T07:35:12;21.20;46.50
44723;DHT22;30451;48.638;10.624;2023-02-28T07:37:38;21.20;46.50
44723;DHT22;30451;48.638;10.624;2023-02-28T07:40:05;21.20;45.60
44723;DHT22;30451;48.638;10.624;2023-02-28T07:42:35;21.20;44.40
44723;DHT22;30451;48.638;10.624;2023-02-28T07:45:01;21.20;43.80
44723;DHT22;30451;48.638;10.624;2023-02-28T07:47:29;21.10;43.60
44723;DHT22;30451;48.638;10.624;2023-02-28T07:49:54;21.20;44.10
44723;DHT22;30451;48.638;10.624;2023-02-28T07:52:20;21.20;43.40
44723;DHT22;30451;48.638;10.624;2023-02-28T07:54:45;21.10;43.30
44723;DHT22;30451;48.638;10.624;2023-02-28T07:57:11;21.10;43.30
44723;DHT22;30451;48.638;10.624;2023-02-28T07:59:37;21.20;43.30
44723;DHT22;30451;48.638;10.624;2023-02-28T08:02:02;21.20;43.40
44723;DHT22;30451;48.638;10.624;2023-02-28T08:04:31;21.20;43.40
44723;DHT22;30451;48.638;10.624;2023-02-28T08:06:57;21.20;43.60
44723;DHT22;30451;48.638;10.624;2023-02-28T08:09:23;21.20;43.30
44723;DHT22;30451;48.638;10.624;2023-02-28T08:11:48;21.20;43.10
44723;DHT22;30451;48.638;10.624;2023-02-28T08:14:14;21.20;43.00
44723;DHT22;30451;48.638;10.624;2023-02-28T08:16:40;21.20;42.90
44723;DHT22;30451;48.638;10.624;2023-02-28T08:19:05;21.20;43.10
44723;DHT22;30451;48.638;10.624;2023-02-28T08:21:31;21.20;43.40
44723;DHT22;30451;48.638;10.624;2023-02-28T08:23:58;21.20;43.60
44723;DHT22;30451;48.638;10.624;2023-02-28T08:26:24;21.20;43.70
44723;DHT22;30451;48.638;10.624;2023-02-28T08:28:49;21.20;43.80
44723;DHT22;30451;48.638;10.624;2023-02-28T08:31:16;21.20;43.90
44723;DHT22;30451;48.638;10.624;2023-02-28T08:33:42;21.20;44.00
44723;DHT22;30451;48.638;10.624;2023-02-28T08:36:08;21.20;44.00
44723;DHT22;30451;48.638;10.624;2023-02-28T08:38:35;21.20;44.10
44723;DHT22;30451;48.638;10.624;2023-02-28T08:41:04;21.20;44.60
44723;DHT22;30451;48.638;10.624;2023-02-28T08:43:32;21.20;44.20
44723;DHT22;30451;48.638;10.624;2023-02-28T08:45:58;21.30;44.20
44723;DHT22;30451;48.638;10.624;2023-02-28T08:48:28;21.30;44.20
44723;DHT22;30451;48.638;10.624;2023-02-28T08:50:59;21.30;44.40
44723;DHT22;30451;48.638;10.624;2023-02-28T08:53:25;21.30;44.30
44723;DHT22;30451;48.638;10.624;2023-02-28T08:56:02;21.30;44.20
44723;DHT22;30451;48.638;10.624;2023-02-28T08:58:28;21.40;44.20
44723;DHT22;30451;48.638;10.624;2023-02-28T09:00:54;21.40;44.20
44723;DHT22;30451;48.638;10.624;2023-02-28T09:03:20;21.40;44.20
44723;DHT22;30451;48.638;10.624;2023-02-28T09:06:13;21.40;44.20
44723;DHT22;30451;48.638;10.624;2023-02-28T09:08:39;21.40;43.90
44723;DHT22;30451;48.638;10.624;2023-02-28T09:11:05;21.40;44.60
44723;DHT22;30451;48.638;10.624;2023-02-28T09:13:32;21.40;44.10
44723;DHT22;30451;48.638;10.624;2023-02-28T09:15:59;21.40;44.10
44723;DHT22;30451;48.638;10.624;2023-02-28T09:18:26;21.50;44.20
44723;DHT22;30451;48.638;10.624;2023-02-28T09:20:52;21.50;44.00
44723;DHT22;30451;48.638;10.624;2023-02-28T09:23:18;21.50;43.90
44723;DHT22;30451;48.638;10.624;2023-02-28T09:25:52;21.50;44.10
44723;DHT22;30451;48.638;10.624;2023-02-28T09:28:18;21.50;44.10
44723;DHT22;30451;48.638;10.624;2023-02-28T09:30:45;21.50;44.10
44723;DHT22;30451;48.638;10.624;2023-02-28T09:33:13;21.60;44.20
44723;DHT22;30451;48.638;10.624;2023-02-28T09:35:39;21.60;44.30
44723;DHT22;30451;48.638;10.624;2023-02-28T09:38:05;21.60;44.20
44723;DHT22;30451;48.638;10.624;2023-02-28T09:40:37;21.60;44.30
44723;DHT22;30451;48.638;10.624;2023-02-28T09:43:03;21.60;44.10
44723;DHT22;30451;48.638;10.624;2023-02-28T09:45:33;21.60;44.10
44723;DHT22;30451;48.638;10.624;2023-02-28T09:48:02;21.60;44.10
44723;DHT22;30451;48.638;10.624;2023-02-28T09:52:59;21.70;44.10
44723;DHT22;30451;48.638;10.624;2023-02-28T09:55:40;21.60;43.90
44723;DHT22;30451;48.638;10.624;2023-02-28T09:58:17;21.70;44.00
44723;DHT22;30451;48.638;10.624;2023-02-28T10:00:54;21.70;43.90
44723;DHT22;30451;48.638;10.624;2023-02-28T10:09:00;21.80;44.00
44723;DHT22;30451;48.638;10.624;2023-02-28T10:11:27;21.80;43.90
44723;DHT22;30451;48.638;10.624;2023-02-28T10:16:40;21.80;44.00
44723;DHT22;30451;48.638;10.624;2023-02-28T10:19:19;21.80;44.00
44723;DHT22;30451;48.638;10.624;2023-02-28T10:22:01;21.90;44.30
44723;DHT22;30451;48.638;10.624;2023-02-28T10:24:44;21.90;44.10
44723;DHT22;30451;48.638;10.624;2023-02-28T10:27:25;21.90;44.20
44723;DHT22;30451;48.638;10.624;2023-02-28T10:29:53;22.00;44.10
44723;DHT22;30451;48.638;10.624;2023-02-28T10:32:40;22.00;44.30
44723;DHT22;30451;48.638;10.624;2023-02-28T10:35:10;22.00;42.70
44723;DHT22;30451;48.638;10.624;2023-02-28T10:37:41;22.00;42.30
44723;DHT22;30451;48.638;10.624;2023-02-28T10:40:27;22.00;42.20
44723;DHT22;30451;48.638;10.624;2023-02-28T10:43:05;22.10;42.10
44723;DHT22;30451;48.638;10.624;2023-02-28T10:45:35;22.00;41.90
44723;DHT22;30451;48.638;10.624;2023-02-28T10:48:34;22.00;42.00
44723;DHT22;30451;48.638;10.624;2023-02-28T10:51:02;22.00;41.90
44723;DHT22;30451;48.638;10.624;2023-02-28T10:53:47;22.10;42.00
44723;DHT22;30451;48.638;10.624;2023-02-28T10:56:23;22.10;42.00
44723;DHT22;30451;48.638;10.624;2023-02-28T10:58:59;22.10;41.90
44723;DHT22;30451;48.638;10.624;2023-02-28T11:01:43;22.00;41.90
44723;DHT22;30451;48.638;10.624;2023-02-28T11:06:59;22.00;41.90
44723;DHT22;30451;48.638;10.624;2023-02-28T11:09:29;22.00;42.00
44723;DHT22;30451;48.638;10.624;2023-02-28T11:11:55;22.00;42.10
44723;DHT22;30451;48.638;10.624;2023-02-28T11:14:27;22.00;42.00
44723;DHT22;30451;48.638;10.624;2023-02-28T11:16:54;22.00;42.00
44723;DHT22;30451;48.638;10.624;2023-02-28T11:19:28;22.00;42.00
44723;DHT22;30451;48.638;10.624;2023-02-28T11:22:00;22.00;42.10
44723;DHT22;30451;48.638;10.624;2023-02-28T11:24:28;22.00;42.00
44723;DHT22;30451;48.638;10.624;2023-02-28T11:26:55;22.00;42.10
44723;DHT22;30451;48.638;10.624;2023-02-28T11:29:23;22.00;42.00
44723;DHT22;30451;48.638;10.624;2023-02-28T11:32:03;22.00;42.20
44723;DHT22;30451;48.638;10.624;2023-02-28T11:34:29;22.00;42.10
44723;DHT22;30451;48.638;10.624;2023-02-28T11:36:56;22.00;42.10
44723;DHT22;30451;48.638;10.624;2023-02-28T11:39:23;22.00;42.10
44723;DHT22;30451;48.638;10.624;2023-02-28T12:03:58;22.00;42.10
44723;DHT22;30451;48.638;10.624;2023-02-28T12:06:37;22.00;42.10
44723;DHT22;30451;48.638;10.624;2023-02-28T12:17:49;21.90;42.00
44723;DHT22;30451;48.638;10.624;2023-02-28T12:26:07;22.00;42.20
44723;DHT22;30451;48.638;10.624;2023-02-28T12:28:44;21.90;42.30
44723;DHT22;30451;48.638;10.624;2023-02-28T12:31:28;21.90;42.70
44723;DHT22;30451;48.638;10.624;2023-02-28T12:34:01;21.90;43.20
44723;DHT22;30451;48.638;10.624;2023-02-28T12:36:28;21.90;42.70
44723;DHT22;30451;48.638;10.624;2023-02-28T12:39:20;21.90;42.70
44723;DHT22;30451;48.638;10.624;2023-02-28T12:41:53;21.90;42.70
44723;DHT22;30451;48.638;10.624;2023-02-28T12:44:26;22.00;42.70
44723;DHT22;30451;48.638;10.624;2023-02-28T12:46:56;22.00;42.80
44723;DHT22;30451;48.638;10.624;2023-02-28T12:49:51;22.00;42.80
44723;DHT22;30451;48.638;10.624;2023-02-28T12:52:18;22.00;42.80
44723;DHT22;30451;48.638;10.624;2023-02-28T12:55:03;22.00;42.80
44723;DHT22;30451;48.638;10.624;2023-02-28T12:57:48;22.00;42.80
44723;DHT22;30451;48.638;10.624;2023-02-28T13:00:22;22.00;42.80
44723;DHT22;30451;48.638;10.624;2023-02-28T13:06:01;22.00;42.90
44723;DHT22;30451;48.638;10.624;2023-02-28T13:11:38;22.10;43.00
44723;DHT22;30451;48.638;10.624;2023-02-28T13:27:52;22.10;43.00
44723;DHT22;30451;48.638;10.624;2023-02-28T13:38:42;22.10;43.10
44723;DHT22;30451;48.638;10.624;2023-02-28T13:46:34;22.10;43.10
44723;DHT22;30451;48.638;10.624;2023-02-28T13:49:23;22.10;43.00
44723;DHT22;30451;48.638;10.624;2023-02-28T13:57:57;22.20;43.00
44723;DHT22;30451;48.638;10.624;2023-02-28T14:00:48;22.20;42.90
44723;DHT22;30451;48.638;10.624;2023-02-28T14:03:28;22.20;42.80
44723;DHT22;30451;48.638;10.624;2023-02-28T14:11:42;22.20;42.70
44723;DHT22;30451;48.638;10.624;2023-02-28T14:16:55;22.30;42.60
44723;DHT22;30451;48.638;10.624;2023-02-28T14:19:26;22.30;42.60
44723;DHT22;30451;48.638;10.624;2023-02-28T14:25:15;22.20;42.40
44723;DHT22;30451;48.638;10.624;2023-02-28T14:33:53;22.20;42.30
44723;DHT22;30451;48.638;10.624;2023-02-28T14:36:52;22.30;42.40
44723;DHT22;30451;48.638;10.624;2023-02-28T14:39:24;22.30;42.30
44723;DHT22;30451;48.638;10.624;2023-02-28T14:41:51;22.30;42.30
44723;DHT22;30451;48.638;10.624;2023-02-28T14:46:44;22.30;42.30
44723;DHT22;30451;48.638;10.624;2023-02-28T14:49:27;22.30;42.30
44723;DHT22;30451;48.638;10.624;2023-02-28T14:52:14;22.30;42.10
44723;DHT22;30451;48.638;10.624;2023-02-28T14:54:40;22.30;42.20
44723;DHT22;30451;48.638;10.624;2023-02-28T14:57:12;22.30;42.30
44723;DHT22;30451;48.638;10.624;2023-02-28T14:59:45;22.30;42.20
44723;DHT22;30451;48.638;10.624;2023-02-28T15:02:24;22.20;42.20
44723;DHT22;30451;48.638;10.624;2023-02-28T15:05:00;22.20;42.30
44723;DHT22;30451;48.638;10.624;2023-02-28T15:07:27;22.30;42.30
44723;DHT22;30451;48.638;10.624;2023-02-28T15:10:24;22.30;42.30
44723;DHT22;30451;48.638;10.624;2023-02-28T15:12:58;22.20;42.10
44723;DHT22;30451;48.638;10.624;2023-02-28T15:15:54;22.30;42.10
44723;DHT22;30451;48.638;10.624;2023-02-28T15:18:23;22.20;42.10
44723;DHT22;30451;48.638;10.624;2023-02-28T15:20:52;22.20;42.10
44723;DHT22;30451;48.638;10.624;2023-02-28T15:23:19;22.20;42.10
44723;DHT22;30451;48.638;10.624;2023-02-28T15:25:46;22.20;42.20
44723;DHT22;30451;48.638;10.624;2023-02-28T15:28:16;22.10;42.20
44723;DHT22;30451;48.638;10.624;2023-02-28T15:30:52;22.20;42.30
44723;DHT22;30451;48.638;10.624;2023-02-28T15:35:43;22.10;42.30
44723;DHT22;30451;48.638;10.624;2023-02-28T15:38:27;22.10;42.40
44723;DHT22;30451;48.638;10.624;2023-02-28T15:40:57;22.10;42.40
44723;DHT22;30451;48.638;10.624;2023-02-28T15:46:07;22.00;42.40
44723;DHT22;30451;48.638;10.624;2023-02-28T15:48:43;22.00;42.50
44723;DHT22;30451;48.638;10.624;2023-02-28T15:54:16;22.00;42.60
44723;DHT22;30451;48.638;10.624;2023-02-28T15:56:53;22.00;42.60
44723;DHT22;30451;48.638;10.624;2023-02-28T15:59:28;22.00;42.70
44723;DHT22;30451;48.638;10.624;2023-02-28T16:07:27;21.90;42.70
44723;DHT22;30451;48.638;10.624;2023-02-28T16:09:53;21.90;42.70
44723;DHT22;30451;48.638;10.624;2023-02-28T16:12:20;21.80;42.70
44723;DHT22;30451;48.638;10.624;2023-02-28T16:14:51;21.80;42.80
44723;DHT22;30451;48.638;10.624;2023-02-28T16:17:23;21.80;42.80
44723;DHT22;30451;48.638;10.624;2023-02-28T16:19:49;21.80;42.80
44723;DHT22;30451;48.638;10.624;2023-02-28T16:22:15;21.80;42.90
44723;DHT22;30451;48.638;10.624;2023-02-28T16:24:41;21.80;42.90
44723;DHT22;30451;48.638;10.624;2023-02-28T16:27:09;21.70;42.80
44723;DHT22;30451;48.638;10.624;2023-02-28T16:29:40;21.70;42.90
44723;DHT22;30451;48.638;10.624;2023-02-28T16:32:06;21.70;43.00
44723;DHT22;30451;48.638;10.624;2023-02-28T16:34:31;21.70;43.20
44723;DHT22;30451;48.638;10.624;2023-02-28T16:36:58;21.70;43.10
44723;DHT22;30451;48.638;10.624;2023-02-28T16:39:24;21.60;43.10
44723;DHT22;30451;48.638;10.624;2023-02-28T16:41:51;21.60;43.20
44723;DHT22;30451;48.638;10.624;2023-02-28T16:46:51;21.50;43.40
44723;DHT22;30451;48.638;10.624;2023-02-28T16:49:17;21.60;43.50
44723;DHT22;30451;48.638;10.624;2023-02-28T16:51:42;21.60;43.40
44723;DHT22;30451;48.638;10.624;2023-02-28T16:54:08;21.60;43.40
44723;DHT22;30451;48.638;10.624;2023-02-28T16:56:34;21.60;43.50
44723;DHT22;30451;48.638;10.624;2023-02-28T16:59:01;21.60;43.50
44723;DHT22;30451;48.638;10.624;2023-02-28T17:01:27;21.60;43.40
44723;DHT22;30451;48.638;10.624;2023-02-28T17:03:54;21.60;43.40
44723;DHT22;30451;48.638;10.624;2023-02-28T17:06:27;21.60;43.50
44723;DHT22;30451;48.638;10.624;2023-02-28T17:08:54;21.70;43.50
44723;DHT22;30451;48.638;10.624;2023-02-28T17:11:20;21.70;43.50
44723;DHT22;30451;48.638;10.624;2023-02-28T17:13:47;21.60;43.80
44723;DHT22;30451;48.638;10.624;2023-02-28T17:16:25;21.70;44.40
44723;DHT22;30451;48.638;10.624;2023-02-28T17:18:54;21.60;43.80
44723;DHT22;30451;48.638;10.624;2023-02-28T17:21:22;21.60;43.80
44723;DHT22;30451;48.638;10.624;2023-02-28T17:23:47;21.70;43.80
44723;DHT22;30451;48.638;10.624;2023-02-28T17:26:15;21.70;43.60
44723;DHT22;30451;48.638;10.624;2023-02-28T17:28:43;21.70;43.60
44723;DHT22;30451;48.638;10.624;2023-02-28T17:31:09;21.70;43.50
44723;DHT22;30451;48.638;10.624;2023-02-28T17:33:34;21.80;43.60
44723;DHT22;30451;48.638;10.624;2023-02-28T17:36:00;21.80;43.60
44723;DHT22;30451;48.638;10.624;2023-02-28T17:38:27;21.80;43.50
44723;DHT22;30451;48.638;10.624;2023-02-28T17:40:52;21.80;43.50
44723;DHT22;30451;48.638;10.624;2023-02-28T17:43:23;21.80;43.50
44723;DHT22;30451;48.638;10.624;2023-02-28T17:45:49;21.80;43.50
44723;DHT22;30451;48.638;10.624;2023-02-28T17:48:14;21.80;43.40
44723;DHT22;30451;48.638;10.624;2023-02-28T17:50:40;21.80;43.30
44723;DHT22;30451;48.638;10.624;2023-02-28T17:53:06;21.90;43.40
44723;DHT22;30451;48.638;10.624;2023-02-28T17:55:32;21.90;43.40
44723;DHT22;30451;48.638;10.624;2023-02-28T17:57:59;21.90;43.40
44723;DHT22;30451;48.638;10.624;2023-02-28T18:00:25;21.80;43.30
44723;DHT22;30451;48.638;10.624;2023-02-28T18:02:51;21.90;43.40
44723;DHT22;30451;48.638;10.624;2023-02-28T18:05:17;21.90;43.40
44723;DHT22;30451;48.638;10.624;2023-02-28T18:07:43;21.90;43.40
44723;DHT22;30451;48.638;10.624;2023-02-28T18:10:17;21.90;43.40
44723;DHT22;30451;48.638;10.624;2023-02-28T18:12:47;21.90;43.50
44723;DHT22;30451;48.638;10.624;2023-02-28T18:15:14;22.00;43.50
44723;DHT22;30451;48.638;10.624;2023-02-28T18:17:40;21.90;43.40
44723;DHT22;30451;48.638;10.624;2023-02-28T18:20:06;21.90;43.40
44723;DHT22;30451;48.638;10.624;2023-02-28T18:22:35;22.00;44.00